createdAt,value
2022-10-08T00:00:10.990Z,99.90
2022-10-08T00:02:42.625Z,99.90
2022-10-08T00:05:12.761Z,99.90
2022-10-08T00:07:42.713Z,99.90
2022-10-08T00:10:11.175Z,99.90
2022-10-08T00:12:39.743Z,99.90
2022-10-08T00:15:09.662Z,99.90
2022-10-08T00:17:38.081Z,99.90
2022-10-08T00:20:07.187Z,99.90
2022-10-08T00:22:39.841Z,99.90
2022-10-08T00:25:09.369Z,99.90
2022-10-08T00:27:38.311Z,99.90
2022-10-08T00:30:08.389Z,99.90
2022-10-08T00:32:36.774Z,99.90
2022-10-08T00:35:05.748Z,99.90
2022-10-08T00:37:34.307Z,99.90
2022-10-08T00:40:04.946Z,99.90
2022-10-08T00:42:33.476Z,99.90
2022-10-08T00:45:02.590Z,99.90
2022-10-08T00:47:45.385Z,99.90
2022-10-08T00:50:18.295Z,99.90
2022-10-08T00:52:50.503Z,99.90
2022-10-08T00:55:23.772Z,99.90
2022-10-08T00:57:55.861Z,99.90
2022-10-08T01:00:26.907Z,99.90
2022-10-08T01:02:56.332Z,99.90
2022-10-08T01:05:34.958Z,99.90
2022-10-08T01:08:13.762Z,99.90
2022-10-08T01:10:52.810Z,99.90
2022-10-08T01:13:35.267Z,99.90
2022-10-08T01:16:17.678Z,99.90
2022-10-08T01:18:54.132Z,99.90
2022-10-08T01:21:32.006Z,99.90
2022-10-08T01:24:23.481Z,99.90
2022-10-08T01:27:02.145Z,99.90
2022-10-08T01:29:37.782Z,99.90
2022-10-08T01:32:12.183Z,99.90
2022-10-08T01:34:45.979Z,99.90
2022-10-08T01:37:21.697Z,99.90
2022-10-08T01:39:53.418Z,99.90
2022-10-08T01:42:25.121Z,99.90
2022-10-08T01:44:58.389Z,99.90
2022-10-08T01:47:31.108Z,99.90
2022-10-08T01:50:04.015Z,99.90
2022-10-08T01:52:38.763Z,99.90
2022-10-08T01:55:13.312Z,99.90
2022-10-08T01:57:43.353Z,99.90
2022-10-08T02:00:15.827Z,99.90
2022-10-08T02:02:45.359Z,99.90
2022-10-08T02:05:14.085Z,99.90
2022-10-08T02:07:44.328Z,99.90
2022-10-08T02:10:15.416Z,99.90
2022-10-08T02:12:45.524Z,99.90
2022-10-08T02:15:18.718Z,99.90
2022-10-08T02:17:56.561Z,99.90
2022-10-08T02:20:32.349Z,99.90
2022-10-08T02:23:25.032Z,99.90
2022-10-08T02:25:59.642Z,99.90
2022-10-08T02:28:39.884Z,99.90
2022-10-08T02:31:13.733Z,99.90
2022-10-08T02:33:45.630Z,99.90
2022-10-08T02:36:18.452Z,99.90
2022-10-08T02:38:52.900Z,99.90
2022-10-08T02:41:24.842Z,99.90
2022-10-08T02:43:56.532Z,99.90
2022-10-08T02:46:30.553Z,99.90
2022-10-08T02:49:04.138Z,99.90
2022-10-08T02:51:35.697Z,99.90
2022-10-08T02:54:05.344Z,99.90
2022-10-08T02:56:38.835Z,99.90
2022-10-08T02:59:10.838Z,99.90
2022-10-08T03:01:46.491Z,99.90
2022-10-08T03:04:22.918Z,99.90
2022-10-08T03:06:53.582Z,99.90
2022-10-08T03:09:23.855Z,99.90
2022-10-08T03:11:53.955Z,99.90
2022-10-08T03:14:24.394Z,99.90
2022-10-08T03:16:55.111Z,99.90
2022-10-08T03:19:24.139Z,99.90
2022-10-08T03:21:56.032Z,99.90
2022-10-08T03:24:24.885Z,99.90
2022-10-08T03:26:53.952Z,99.90
2022-10-08T03:29:23.099Z,99.90
2022-10-08T03:31:52.162Z,99.90
2022-10-08T03:34:23.036Z,99.90
2022-10-08T03:36:51.651Z,99.90
2022-10-08T03:39:19.826Z,99.90
2022-10-08T03:41:48.284Z,99.90
2022-10-08T03:44:16.572Z,99.90
2022-10-08T03:46:45.599Z,99.90
2022-10-08T03:49:13.796Z,99.90
2022-10-08T03:51:44.795Z,99.90
2022-10-08T03:54:13.240Z,99.90
2022-10-08T03:56:41.677Z,99.90
2022-10-08T03:59:10.745Z,99.90
2022-10-08T04:01:39.215Z,99.90
2022-10-08T04:04:07.735Z,99.90
2022-10-08T04:06:36.519Z,99.90
2022-10-08T04:09:06.295Z,99.90
2022-10-08T04:11:35.241Z,99.90
2022-10-08T04:14:03.664Z,99.90
2022-10-08T04:16:32.249Z,99.90
2022-10-08T04:19:00.593Z,99.90
2022-10-08T04:21:31.744Z,99.90
2022-10-08T04:24:00.305Z,99.90
2022-10-08T04:26:29.995Z,99.90
2022-10-08T04:28:58.680Z,99.90
2022-10-08T04:31:27.212Z,99.90
2022-10-08T04:33:55.947Z,99.90
2022-10-08T04:36:25.652Z,99.90
2022-10-08T04:38:54.489Z,99.90
2022-10-08T04:41:24.181Z,99.90
2022-10-08T04:43:55.562Z,99.90
2022-10-08T04:46:24.127Z,99.90
2022-10-08T04:48:53.954Z,99.90
2022-10-08T04:51:24.381Z,99.90
2022-10-08T04:53:54.835Z,99.90
2022-10-08T04:56:25.380Z,99.90
2022-10-08T04:58:56.197Z,99.90
2022-10-08T05:01:25.720Z,99.90
2022-10-08T05:03:55.392Z,99.90
2022-10-08T05:06:27.317Z,99.90
2022-10-08T05:08:56.229Z,99.90
2022-10-08T05:11:26.245Z,99.90
2022-10-08T05:13:57.927Z,99.90
2022-10-08T05:16:27.494Z,99.90
2022-10-08T05:18:57.342Z,99.90
2022-10-08T05:21:28.057Z,99.90
2022-10-08T05:24:00.949Z,99.90
2022-10-08T05:26:58.238Z,99.90
2022-10-08T05:29:21.860Z,99.90
2022-10-08T05:31:50.323Z,99.90
2022-10-08T05:34:19.026Z,99.90
2022-10-08T05:36:47.306Z,99.90
2022-10-08T05:39:16.611Z,99.90
2022-10-08T05:41:45.083Z,99.90
2022-10-08T05:44:13.853Z,99.90
2022-10-08T05:46:43.714Z,99.90
2022-10-08T05:49:18.851Z,99.90
2022-10-08T05:51:47.758Z,99.90
2022-10-08T05:54:17.445Z,99.90
2022-10-08T05:56:46.008Z,99.90
2022-10-08T05:59:18.970Z,99.90
2022-10-08T06:01:52.057Z,99.90
2022-10-08T06:04:20.517Z,99.90
2022-10-08T06:06:49.771Z,99.90
2022-10-08T06:09:19.638Z,99.90
2022-10-08T06:11:49.771Z,99.90
2022-10-08T06:14:20.486Z,99.90
2022-10-08T06:16:50.266Z,99.90
2022-10-08T06:19:19.024Z,99.90
2022-10-08T06:21:47.207Z,99.90
2022-10-08T06:24:16.019Z,99.90
2022-10-08T06:26:45.573Z,99.90
2022-10-08T06:29:17.182Z,99.90
2022-10-08T06:31:47.087Z,99.90
2022-10-08T06:34:17.571Z,99.90
2022-10-08T06:36:46.041Z,99.90
2022-10-08T06:39:17.685Z,99.90
2022-10-08T06:41:46.437Z,99.90
2022-10-08T06:44:15.790Z,99.90
2022-10-08T06:46:44.804Z,99.90
2022-10-08T06:49:13.326Z,99.90
2022-10-08T06:51:43.354Z,99.90
2022-10-08T06:54:11.602Z,99.90
2022-10-08T06:56:42.534Z,99.90
2022-10-08T06:59:11.324Z,99.90
2022-10-08T07:01:39.968Z,99.90
2022-10-08T07:04:08.662Z,99.90
2022-10-08T07:06:40.244Z,99.90
2022-10-08T07:09:11.105Z,99.90
2022-10-08T07:11:39.905Z,99.90
2022-10-08T07:14:08.482Z,99.90
2022-10-08T07:16:36.986Z,99.90
2022-10-08T07:19:05.650Z,99.90
2022-10-08T07:21:34.128Z,99.90
2022-10-08T07:24:02.917Z,99.90
2022-10-08T07:26:34.514Z,99.90
2022-10-08T07:29:04.900Z,99.90
2022-10-08T07:31:36.480Z,99.90
2022-10-08T07:34:06.699Z,99.90
2022-10-08T07:36:38.587Z,99.90
2022-10-08T07:39:09.532Z,99.90
2022-10-08T07:41:39.947Z,99.90
2022-10-08T07:44:09.318Z,99.90
2022-10-08T07:46:39.236Z,99.90
2022-10-08T07:49:07.486Z,99.90
2022-10-08T07:51:36.632Z,99.90
2022-10-08T07:54:07.588Z,99.90
2022-10-08T07:56:37.660Z,99.90
2022-10-08T07:59:09.193Z,99.90
2022-10-08T08:01:37.491Z,99.90
2022-10-08T08:04:08.243Z,99.90
2022-10-08T08:06:41.259Z,99.90
2022-10-08T08:09:10.850Z,99.90
2022-10-08T08:11:40.217Z,99.90
2022-10-08T08:14:09.790Z,99.90
2022-10-08T08:16:39.341Z,99.90
2022-10-08T08:19:08.205Z,99.90
2022-10-08T08:21:38.864Z,99.90
2022-10-08T08:24:10.897Z,99.90
2022-10-08T08:26:41.511Z,99.90
2022-10-08T08:29:13.111Z,99.90
2022-10-08T08:31:43.835Z,99.90
2022-10-08T08:34:14.892Z,99.90
2022-10-08T08:36:47.464Z,99.90
2022-10-08T08:39:18.237Z,99.90
2022-10-08T08:41:56.207Z,95.10
2022-10-08T08:44:29.700Z,81.10
2022-10-08T08:47:02.731Z,68.60
2022-10-08T08:49:40.307Z,80.80
2022-10-08T08:52:13.699Z,75.40
2022-10-08T08:54:42.280Z,77.00
2022-10-08T08:57:28.058Z,57.40
2022-10-08T09:00:03.711Z,35.90
2022-10-08T09:02:36.954Z,22.30
2022-10-08T09:05:11.445Z,20.40
2022-10-08T09:07:46.964Z,22.90
2022-10-08T09:10:21.526Z,15.80
2022-10-08T09:12:53.831Z,1.00
2022-10-08T09:15:30.381Z,3.30
2022-10-08T09:18:04.077Z,3.50
2022-10-08T09:20:36.677Z,8.60
2022-10-08T09:23:15.061Z,17.00
2022-10-08T09:25:48.359Z,13.20
2022-10-08T09:28:40.181Z,19.50
2022-10-08T09:31:20.189Z,24.10
2022-10-08T09:34:07.486Z,26.80
2022-10-08T09:36:39.144Z,27.90
2022-10-08T09:39:18.609Z,25.60
2022-10-08T09:41:48.953Z,17.80
2022-10-08T09:44:22.237Z,20.20
2022-10-08T09:47:06.124Z,20.70
2022-10-08T09:49:38.898Z,21.00
2022-10-08T09:52:17.077Z,13.30
2022-10-08T09:54:50.375Z,11.30
2022-10-08T09:57:21.872Z,16.90
2022-10-08T09:59:54.313Z,11.30
2022-10-08T10:02:31.921Z,12.80
2022-10-08T10:05:02.539Z,14.40
2022-10-08T10:07:40.547Z,15.90
2022-10-08T10:10:29.043Z,17.70
2022-10-08T10:13:02.641Z,18.90
2022-10-08T10:15:37.467Z,13.90
2022-10-08T10:18:14.264Z,17.80
2022-10-08T10:20:46.879Z,19.70
2022-10-08T10:23:19.190Z,18.70
2022-10-08T10:25:56.250Z,15.00
2022-10-08T10:28:35.457Z,16.90
2022-10-08T10:31:08.506Z,16.10
2022-10-08T10:33:44.681Z,15.90
2022-10-08T10:36:17.369Z,19.40
2022-10-08T10:38:52.885Z,21.80
2022-10-08T10:41:30.076Z,23.00
2022-10-08T10:44:01.522Z,11.90
2022-10-08T10:46:35.585Z,15.60
2022-10-08T10:49:14.111Z,17.10
2022-10-08T10:51:58.678Z,20.00
2022-10-08T10:54:55.760Z,23.00
2022-10-08T10:57:34.774Z,25.30
2022-10-08T11:00:07.406Z,19.80
2022-10-08T11:02:45.360Z,18.60
2022-10-08T11:05:21.895Z,21.80
2022-10-08T11:08:19.552Z,20.30
2022-10-08T11:11:06.519Z,16.70
2022-10-08T11:13:47.574Z,14.10
2022-10-08T11:16:30.760Z,5.00
2022-10-08T11:19:02.243Z,12.80
2022-10-08T11:21:52.123Z,11.10
2022-10-08T11:24:41.609Z,8.80
2022-10-08T11:27:20.962Z,3.70
2022-10-08T11:29:57.315Z,3.90
2022-10-08T11:32:27.275Z,1.00
2022-10-08T11:35:08.940Z,1.00
2022-10-08T11:37:46.161Z,1.00
2022-10-08T11:40:23.717Z,1.00
2022-10-08T11:43:02.065Z,1.00
2022-10-08T11:45:34.455Z,1.00
2022-10-08T11:48:24.814Z,3.90
2022-10-08T11:50:54.149Z,4.50
2022-10-08T11:53:23.849Z,1.90
2022-10-08T11:55:55.371Z,1.00
2022-10-08T11:58:28.004Z,1.00
2022-10-08T12:01:05.972Z,1.00
2022-10-08T12:03:38.036Z,1.00
2022-10-08T12:06:21.077Z,1.00
2022-10-08T12:08:56.248Z,1.00
2022-10-08T12:11:51.122Z,1.00
2022-10-08T12:14:47.421Z,1.00
2022-10-08T12:17:17.535Z,1.00
2022-10-08T12:20:04.684Z,1.00
2022-10-08T12:22:45.377Z,1.00
2022-10-08T12:25:39.212Z,1.00
2022-10-08T12:28:39.923Z,1.00
2022-10-08T12:31:30.037Z,1.00
2022-10-08T12:34:03.775Z,1.00
2022-10-08T12:36:46.828Z,1.00
2022-10-08T12:39:23.330Z,1.00
2022-10-08T12:42:05.281Z,1.00
2022-10-08T12:44:47.589Z,1.00
2022-10-08T12:47:26.752Z,1.00
2022-10-08T12:50:02.222Z,1.00
2022-10-08T12:52:35.250Z,1.00
2022-10-08T12:55:06.513Z,1.00
2022-10-08T12:57:42.325Z,1.00
2022-10-08T13:00:22.209Z,1.00
2022-10-08T13:03:00.800Z,1.00
2022-10-08T13:05:34.373Z,1.00
2022-10-08T13:08:31.793Z,1.00
2022-10-08T13:11:03.553Z,1.00
2022-10-08T13:13:36.611Z,1.00
2022-10-08T13:16:08.366Z,1.00
2022-10-08T13:18:39.031Z,1.00
2022-10-08T13:21:23.856Z,1.00
2022-10-08T13:23:54.242Z,1.00
2022-10-08T13:26:42.869Z,1.00
2022-10-08T13:29:32.478Z,1.00
2022-10-08T13:32:04.601Z,1.00
2022-10-08T13:34:35.701Z,1.00
2022-10-08T13:37:07.693Z,1.00
2022-10-08T13:39:39.516Z,1.00
2022-10-08T13:42:11.287Z,1.00
2022-10-08T13:44:43.004Z,1.00
2022-10-08T13:47:14.097Z,1.00
2022-10-08T13:49:43.983Z,1.00
2022-10-08T13:52:16.257Z,1.00
2022-10-08T13:54:44.832Z,1.00
2022-10-08T13:57:13.785Z,1.00
2022-10-08T13:59:43.503Z,1.00
2022-10-08T14:02:13.685Z,1.00
2022-10-08T14:04:42.902Z,1.00
2022-10-08T14:07:19.974Z,1.00
2022-10-08T14:09:48.593Z,1.00
2022-10-08T14:12:18.330Z,1.00
2022-10-08T14:14:48.072Z,1.00
2022-10-08T14:17:16.814Z,1.00
2022-10-08T14:19:45.173Z,1.00
2022-10-08T14:22:14.590Z,1.00
2022-10-08T14:24:42.724Z,1.00
2022-10-08T14:27:11.296Z,1.00
2022-10-08T14:29:39.529Z,1.00
2022-10-08T14:32:10.625Z,1.00
2022-10-08T14:34:39.283Z,1.00
2022-10-08T14:37:08.527Z,1.00
2022-10-08T14:39:36.971Z,1.00
2022-10-08T14:42:05.440Z,1.00
2022-10-08T14:44:34.191Z,1.00
2022-10-08T14:47:02.511Z,1.00
2022-10-08T14:49:32.484Z,1.00
2022-10-08T14:52:00.795Z,1.00
2022-10-08T14:54:29.291Z,1.00
2022-10-08T14:56:57.761Z,1.00
2022-10-08T14:59:26.192Z,1.00
2022-10-08T15:01:54.955Z,1.00
2022-10-08T15:04:23.244Z,1.00
2022-10-08T15:06:53.140Z,1.00
2022-10-08T15:09:22.184Z,1.00
2022-10-08T15:11:50.409Z,1.00
2022-10-08T15:14:18.965Z,1.00
2022-10-08T15:16:47.189Z,1.00
2022-10-08T15:19:18.706Z,1.00
2022-10-08T15:21:52.491Z,1.00
2022-10-08T15:24:21.124Z,1.00
2022-10-08T15:26:49.391Z,1.00
2022-10-08T15:29:18.151Z,1.00
2022-10-08T15:31:46.415Z,1.00
2022-10-08T15:34:18.563Z,1.00
2022-10-08T15:36:47.435Z,1.00
2022-10-08T15:39:19.092Z,1.00
2022-10-08T15:41:50.106Z,1.00
2022-10-08T15:44:21.597Z,1.00
2022-10-08T15:46:55.871Z,1.00
2022-10-08T15:49:31.434Z,1.00
2022-10-08T15:52:01.296Z,1.00
2022-10-08T15:54:30.971Z,1.00
2022-10-08T15:56:59.305Z,1.00
2022-10-08T15:59:27.780Z,1.00
2022-10-08T16:01:56.290Z,1.00
2022-10-08T16:04:24.981Z,1.00
2022-10-08T16:06:53.544Z,1.00
2022-10-08T16:09:24.158Z,1.00
2022-10-08T16:11:54.637Z,1.00
2022-10-08T16:14:24.915Z,1.00
2022-10-08T16:16:54.602Z,1.00
2022-10-08T16:19:24.947Z,1.00
2022-10-08T16:21:55.178Z,1.00
2022-10-08T16:24:24.513Z,1.00
2022-10-08T16:26:54.617Z,1.00
2022-10-08T16:29:23.095Z,1.00
2022-10-08T16:31:51.334Z,1.00
2022-10-08T16:34:21.240Z,1.00
2022-10-08T16:36:51.067Z,1.00
2022-10-08T16:39:24.477Z,1.00
2022-10-08T16:41:54.482Z,1.00
2022-10-08T16:44:22.983Z,1.00
2022-10-08T16:46:53.407Z,1.00
2022-10-08T16:49:26.261Z,1.00
2022-10-08T16:51:57.806Z,1.00
2022-10-08T16:54:26.787Z,1.00
2022-10-08T16:56:56.947Z,4.70
2022-10-08T16:59:27.552Z,4.30
2022-10-08T17:01:58.235Z,10.10
2022-10-08T17:04:29.294Z,9.20
2022-10-08T17:06:57.974Z,13.60
2022-10-08T17:09:26.786Z,14.20
2022-10-08T17:11:57.185Z,21.60
2022-10-08T17:14:25.967Z,24.20
2022-10-08T17:16:54.531Z,16.30
2022-10-08T17:19:23.137Z,17.50
2022-10-08T17:21:51.499Z,21.40
2022-10-08T17:24:20.091Z,25.60
2022-10-08T17:26:50.116Z,24.00
2022-10-08T17:29:19.804Z,23.40
2022-10-08T17:31:48.725Z,29.70
2022-10-08T17:34:17.075Z,29.60
2022-10-08T17:36:45.841Z,36.90
2022-10-08T17:39:15.364Z,43.20
2022-10-08T17:41:44.936Z,46.20
2022-10-08T17:44:14.492Z,46.60
2022-10-08T17:46:47.147Z,50.40
2022-10-08T17:49:17.442Z,55.00
2022-10-08T17:51:47.484Z,56.30
2022-10-08T17:54:18.547Z,64.00
2022-10-08T17:56:48.167Z,68.30
2022-10-08T17:59:17.439Z,71.70
2022-10-08T18:01:47.450Z,74.60
2022-10-08T18:04:18.693Z,78.70
2022-10-08T18:06:48.678Z,80.40
2022-10-08T18:09:19.675Z,91.00
2022-10-08T18:11:51.220Z,90.80
2022-10-08T18:14:20.593Z,91.50
2022-10-08T18:16:50.745Z,92.30
2022-10-08T18:19:19.586Z,90.10
2022-10-08T18:21:48.563Z,90.50
2022-10-08T18:24:18.360Z,90.80
2022-10-08T18:26:47.143Z,92.60
2022-10-08T18:29:16.151Z,94.20
2022-10-08T18:31:46.723Z,88.00
2022-10-08T18:34:18.674Z,89.10
2022-10-08T18:36:47.597Z,92.30
2022-10-08T18:39:18.464Z,90.50
2022-10-08T18:41:48.832Z,91.60
2022-10-08T18:44:19.158Z,88.40
2022-10-08T18:46:47.546Z,81.50
2022-10-08T18:49:19.399Z,84.10
2022-10-08T18:51:50.557Z,86.10
2022-10-08T18:54:19.371Z,84.90
2022-10-08T18:56:47.724Z,78.10
2022-10-08T18:59:17.857Z,82.80
2022-10-08T19:01:48.180Z,89.80
2022-10-08T19:04:19.816Z,89.10
2022-10-08T19:06:49.714Z,90.10
2022-10-08T19:09:18.437Z,90.60
2022-10-08T19:11:49.979Z,92.00
2022-10-08T19:14:21.169Z,94.80
2022-10-08T19:16:50.974Z,92.70
2022-10-08T19:19:23.057Z,92.60
2022-10-08T19:21:52.907Z,93.10
2022-10-08T19:24:23.195Z,94.90
2022-10-08T19:26:51.976Z,94.30
2022-10-08T19:29:22.309Z,91.70
2022-10-08T19:31:51.608Z,90.60
2022-10-08T19:34:23.301Z,88.50
2022-10-08T19:36:52.376Z,90.60
2022-10-08T19:39:23.066Z,93.10
2022-10-08T19:41:51.970Z,93.70
2022-10-08T19:44:20.349Z,92.30
2022-10-08T19:46:49.688Z,93.10
2022-10-08T19:49:18.196Z,95.60
2022-10-08T19:51:48.243Z,96.00
2022-10-08T19:54:17.414Z,93.90
2022-10-08T19:56:45.535Z,98.20
2022-10-08T19:59:14.572Z,99.90
2022-10-08T20:01:43.670Z,99.90
2022-10-08T20:04:14.164Z,99.90
2022-10-08T20:06:44.519Z,99.90
2022-10-08T20:09:15.094Z,99.90
2022-10-08T20:11:45.103Z,99.90
2022-10-08T20:14:14.821Z,99.90
2022-10-08T20:16:44.529Z,99.90
2022-10-08T20:19:16.691Z,99.90
2022-10-08T20:21:45.628Z,99.90
2022-10-08T20:24:15.658Z,99.90
2022-10-08T20:26:45.808Z,99.90
2022-10-08T20:29:16.475Z,99.90
2022-10-08T20:31:48.982Z,99.90
2022-10-08T20:34:19.036Z,99.90
2022-10-08T20:36:48.977Z,99.90
2022-10-08T20:39:21.287Z,99.90
2022-10-08T20:41:50.429Z,99.90
2022-10-08T20:44:19.441Z,99.90
2022-10-08T20:46:50.211Z,99.90
2022-10-08T20:49:22.342Z,99.90
2022-10-08T20:51:52.531Z,99.90
2022-10-08T20:54:22.377Z,99.90
2022-10-08T20:56:50.984Z,99.90
2022-10-08T20:59:20.849Z,99.90
2022-10-08T21:01:51.145Z,99.90
2022-10-08T21:04:22.652Z,99.90
2022-10-08T21:06:51.961Z,99.90
2022-10-08T21:09:26.190Z,99.90
2022-10-08T21:11:55.151Z,99.90
2022-10-08T21:14:30.096Z,99.90
2022-10-08T21:17:00.111Z,99.90
2022-10-08T21:19:30.365Z,99.90
2022-10-08T21:21:59.247Z,99.90
2022-10-08T21:24:28.773Z,99.90
2022-10-08T21:26:57.269Z,99.90
2022-10-08T21:29:25.702Z,99.90
2022-10-08T21:31:54.211Z,99.90
2022-10-08T21:34:22.746Z,99.20
2022-10-08T21:36:51.064Z,99.80
2022-10-08T21:39:19.404Z,99.40
2022-10-08T21:41:52.515Z,99.50
2022-10-08T21:44:21.088Z,99.90
2022-10-08T21:46:49.436Z,99.90
2022-10-08T21:49:20.947Z,99.90
2022-10-08T21:51:49.519Z,99.90
2022-10-08T21:54:18.421Z,99.90
2022-10-08T21:56:49.251Z,99.90
2022-10-08T21:59:17.759Z,99.90
2022-10-08T22:01:47.830Z,99.90
2022-10-08T22:04:22.940Z,99.50
2022-10-08T22:06:53.092Z,99.90
2022-10-08T22:09:42.557Z,99.90
2022-10-08T22:12:12.539Z,99.90
2022-10-08T22:14:41.593Z,99.90
2022-10-08T22:17:10.035Z,99.90
2022-10-08T22:19:38.805Z,99.90
2022-10-08T22:22:07.725Z,99.90
2022-10-08T22:24:36.199Z,99.90
2022-10-08T22:27:04.925Z,99.90
2022-10-08T22:29:34.778Z,99.90
2022-10-08T22:32:03.178Z,99.90
2022-10-08T22:34:31.977Z,99.90
2022-10-08T22:37:00.601Z,99.90
2022-10-08T22:39:29.214Z,99.90
2022-10-08T22:41:58.131Z,99.90
2022-10-08T22:44:26.664Z,99.90
2022-10-08T22:46:56.215Z,99.90
2022-10-08T22:49:24.806Z,99.90
2022-10-08T22:51:53.156Z,99.90
2022-10-08T22:54:21.754Z,99.90
2022-10-08T22:56:50.153Z,99.90
2022-10-08T22:59:18.559Z,99.90
2022-10-08T23:01:49.435Z,99.90
2022-10-08T23:04:19.411Z,99.90
2022-10-08T23:06:47.723Z,99.90
2022-10-08T23:09:16.829Z,99.90
2022-10-08T23:11:45.469Z,99.90
2022-10-08T23:14:13.835Z,99.90
2022-10-08T23:16:42.465Z,99.90
2022-10-08T23:19:12.648Z,99.90
2022-10-08T23:21:44.466Z,99.90
2022-10-08T23:24:13.076Z,99.90
2022-10-08T23:26:41.595Z,99.90
2022-10-08T23:29:12.634Z,99.90
2022-10-08T23:31:41.381Z,99.90
2022-10-08T23:34:10.395Z,99.90
2022-10-08T23:36:43.177Z,99.90
2022-10-08T23:39:17.799Z,99.90
2022-10-08T23:41:46.570Z,99.90
2022-10-08T23:44:14.802Z,99.90
2022-10-08T23:46:43.137Z,99.90
2022-10-08T23:49:11.748Z,99.90
2022-10-08T23:51:40.292Z,99.90
2022-10-08T23:54:10.427Z,99.90
2022-10-08T23:56:38.786Z,99.90
2022-10-08T23:59:07.377Z,99.90
